Time;durP1;ratioP1;P1;durP2;ratioP2;P2;SDS_P1;SDS_P2;PMS_P1;PMS_P2;Temp;Humidity;BMP_temperature;BMP_pressure;BME280_temperature;BME280_humidity;BME280_pressure;Samples;Min_cycle;Max_cycle;Signal;HPM_P1;HPM_P2
2021/06/27 00:00:13;;;;;;;;;;;15.80;95.50;;;;;;5014305;28;20372;-68
2021/06/27 00:02:38;;;;;;;;;;;15.90;95.60;;;;;;5014198;28;19933;-68
2021/06/27 00:05:04;;;;;;;;;;;15.90;95.70;;;;;;5015065;28;20277;-68
2021/06/27 00:07:30;;;;;;;;;;;15.90;95.70;;;;;;5014606;28;19925;-68
2021/06/27 00:09:55;;;;;;;;;;;16.00;95.70;;;;;;5015366;28;20037;-69
2021/06/27 00:12:20;;;;;;;;;;;16.00;95.50;;;;;;5014018;28;19937;-68
2021/06/27 00:14:46;;;;;;;;;;;16.00;95.40;;;;;;5014815;28;19943;-69
2021/06/27 00:17:11;;;;;;;;;;;16.00;95.20;;;;;;5015083;28;19924;-69
2021/06/27 00:19:37;;;;;;;;;;;15.90;95.30;;;;;;5014962;28;19928;-68
2021/06/27 00:22:03;;;;;;;;;;;15.90;95.20;;;;;;5015104;28;19923;-68
2021/06/27 00:24:28;;;;;;;;;;;15.90;95.20;;;;;;5014920;28;19981;-68
2021/06/27 00:26:54;;;;;;;;;;;15.90;95.30;;;;;;5014889;28;20455;-69
2021/06/27 00:29:19;;;;;;;;;;;15.90;95.20;;;;;;5014671;28;19960;-69
2021/06/27 00:31:45;;;;;;;;;;;15.90;95.10;;;;;;5014644;28;19923;-69
2021/06/27 00:34:10;;;;;;;;;;;15.90;95.10;;;;;;5014772;28;19940;-69
2021/06/27 00:36:36;;;;;;;;;;;15.90;95.10;;;;;;5014835;28;19934;-68
2021/06/27 00:39:01;;;;;;;;;;;15.90;95.10;;;;;;5014912;28;19926;-69
2021/06/27 00:41:27;;;;;;;;;;;15.90;95.20;;;;;;5014739;28;19923;-68
2021/06/27 00:43:52;;;;;;;;;;;15.90;95.20;;;;;;5014555;28;19923;-68
2021/06/27 00:46:18;;;;;;;;;;;15.90;95.30;;;;;;5014624;28;19939;-68
2021/06/27 00:48:43;;;;;;;;;;;15.90;95.30;;;;;;5014733;28;19925;-68
2021/06/27 00:51:09;;;;;;;;;;;15.90;95.20;;;;;;5013337;28;20307;-68
2021/06/27 00:53:34;;;;;;;;;;;15.90;95.30;;;;;;5014461;28;19920;-68
2021/06/27 00:56:00;;;;;;;;;;;15.90;95.30;;;;;;5014500;28;19929;-68
2021/06/27 00:58:32;;;;;;;;;;;15.90;95.30;;;;;;5014530;28;20331;-69
2021/06/27 01:00:58;;;;;;;;;;;15.90;95.40;;;;;;5013135;28;19927;-68
2021/06/27 01:03:23;;;;;;;;;;;16.00;95.50;;;;;;5013218;28;19922;-68
2021/06/27 01:05:49;;;;;;;;;;;16.00;95.40;;;;;;5012987;28;19926;-68
2021/06/27 01:08:15;;;;;;;;;;;15.90;95.30;;;;;;5014128;28;19927;-69
2021/06/27 01:10:41;;;;;;;;;;;16.00;95.40;;;;;;5014130;28;19930;-69
2021/06/27 01:13:06;;;;;;;;;;;16.00;95.40;;;;;;5013125;28;19924;-68
2021/06/27 01:15:32;;;;;;;;;;;16.00;95.40;;;;;;5012696;28;19949;-69
2021/06/27 01:17:58;;;;;;;;;;;16.00;95.40;;;;;;5013149;28;19932;-68
2021/06/27 01:20:24;;;;;;;;;;;16.00;95.40;;;;;;5012442;28;19995;-69
2021/06/27 01:22:50;;;;;;;;;;;16.00;95.50;;;;;;5014098;28;19926;-69
2021/06/27 01:25:16;;;;;;;;;;;16.00;95.50;;;;;;5013775;28;19994;-68
2021/06/27 01:27:42;;;;;;;;;;;16.00;95.50;;;;;;5012775;28;19934;-69
2021/06/27 01:30:09;;;;;;;;;;;15.90;95.50;;;;;;5013782;28;19928;-68
2021/06/27 01:32:35;;;;;;;;;;;15.90;95.30;;;;;;5013740;28;19957;-69
2021/06/27 01:35:01;;;;;;;;;;;15.90;95.40;;;;;;5013628;28;20006;-68
2021/06/27 01:37:26;;;;;;;;;;;15.90;95.50;;;;;;5012317;28;20344;-68
2021/06/27 01:39:52;;;;;;;;;;;15.90;95.30;;;;;;5013594;28;19926;-69
2021/06/27 01:42:17;;;;;;;;;;;15.90;95.40;;;;;;5013575;28;20031;-69
2021/06/27 01:44:43;;;;;;;;;;;16.00;95.40;;;;;;5011863;28;20429;-68
2021/06/27 01:47:08;;;;;;;;;;;16.00;95.40;;;;;;5012196;28;19932;-69
2021/06/27 01:49:34;;;;;;;;;;;15.90;95.40;;;;;;5013482;28;19925;-69
2021/06/27 01:51:59;;;;;;;;;;;15.90;95.40;;;;;;5013389;28;19926;-68
2021/06/27 01:54:25;;;;;;;;;;;15.90;95.40;;;;;;5011878;28;20037;-68
2021/06/27 01:56:50;;;;;;;;;;;15.90;95.40;;;;;;5012968;28;19927;-69
2021/06/27 01:59:16;;;;;;;;;;;15.90;95.50;;;;;;5013301;28;20020;-68
2021/06/27 02:01:41;;;;;;;;;;;15.90;95.60;;;;;;5013243;28;19930;-69
2021/06/27 02:04:07;;;;;;;;;;;15.90;95.50;;;;;;5012983;28;19927;-69
2021/06/27 02:06:33;;;;;;;;;;;15.90;95.50;;;;;;5013147;28;20019;-68
2021/06/27 02:08:59;;;;;;;;;;;15.90;95.70;;;;;;5013174;28;19945;-68
2021/06/27 02:11:25;;;;;;;;;;;15.90;95.50;;;;;;5011933;28;20385;-69
2021/06/27 02:13:50;;;;;;;;;;;15.90;95.50;;;;;;5013001;28;20360;-69
2021/06/27 02:16:16;;;;;;;;;;;15.90;95.50;;;;;;5012934;28;19925;-68
2021/06/27 02:18:45;;;;;;;;;;;15.90;95.70;;;;;;5011831;28;19940;-69
2021/06/27 02:21:14;;;;;;;;;;;15.80;95.90;;;;;;5012702;28;19927;-69
2021/06/27 02:23:40;;;;;;;;;;;15.80;95.80;;;;;;5013069;28;19922;-68
2021/06/27 02:26:06;;;;;;;;;;;15.80;95.70;;;;;;5012822;28;19961;-68
2021/06/27 02:28:31;;;;;;;;;;;15.80;95.90;;;;;;5012655;28;19969;-69
2021/06/27 02:30:57;;;;;;;;;;;15.80;95.70;;;;;;5011505;28;19925;-68
2021/06/27 02:33:23;;;;;;;;;;;15.80;95.70;;;;;;5012895;28;20297;-68
2021/06/27 02:35:48;;;;;;;;;;;15.80;95.70;;;;;;5012626;28;19970;-68
2021/06/27 02:38:14;;;;;;;;;;;15.80;95.70;;;;;;5012692;28;19923;-68
2021/06/27 02:40:40;;;;;;;;;;;15.80;95.90;;;;;;5012737;28;19926;-69
2021/06/27 02:43:05;;;;;;;;;;;15.80;95.90;;;;;;5012712;28;19929;-68
2021/06/27 02:45:31;;;;;;;;;;;15.80;96.20;;;;;;5011568;28;19923;-68
2021/06/27 02:47:56;;;;;;;;;;;15.80;95.70;;;;;;5012635;28;20331;-68
2021/06/27 02:50:22;;;;;;;;;;;15.80;95.70;;;;;;5012658;28;19924;-68
2021/06/27 02:52:47;;;;;;;;;;;15.80;95.60;;;;;;5012624;28;19928;-69
2021/06/27 02:55:13;;;;;;;;;;;15.80;95.80;;;;;;5012585;28;19945;-68
2021/06/27 02:57:39;;;;;;;;;;;15.80;95.80;;;;;;5011493;28;19923;-69
2021/06/27 03:00:05;;;;;;;;;;;15.70;95.60;;;;;;5012567;28;19922;-69
2021/06/27 03:02:31;;;;;;;;;;;15.60;95.80;;;;;;5011302;28;19950;-69
2021/06/27 03:04:56;;;;;;;;;;;15.60;95.80;;;;;;5012785;28;19925;-69
2021/06/27 03:07:22;;;;;;;;;;;15.60;95.90;;;;;;5012388;28;19926;-68
2021/06/27 03:09:47;;;;;;;;;;;15.60;95.90;;;;;;5011336;28;19976;-69
2021/06/27 03:12:12;;;;;;;;;;;15.60;95.90;;;;;;5012381;28;19925;-69
2021/06/27 03:14:38;;;;;;;;;;;15.60;96.00;;;;;;5012762;28;20314;-68
2021/06/27 03:17:04;;;;;;;;;;;15.60;95.90;;;;;;5011358;28;20294;-68
2021/06/27 03:19:29;;;;;;;;;;;15.60;96.00;;;;;;5012218;28;19989;-69
2021/06/27 03:21:55;;;;;;;;;;;15.50;96.10;;;;;;5011953;28;19948;-68
2021/06/27 03:24:20;;;;;;;;;;;15.60;96.10;;;;;;5011480;28;19994;-68
2021/06/27 03:26:46;;;;;;;;;;;15.60;96.00;;;;;;5012267;28;20037;-68
2021/06/27 03:29:11;;;;;;;;;;;15.60;96.00;;;;;;5012154;28;19962;-68
2021/06/27 03:31:37;;;;;;;;;;;15.60;96.10;;;;;;5012061;28;19931;-69
2021/06/27 03:34:02;;;;;;;;;;;15.50;96.10;;;;;;5012532;28;19983;-68
2021/06/27 03:36:28;;;;;;;;;;;15.50;96.00;;;;;;5012391;28;19952;-68
2021/06/27 03:39:06;;;;;;;;;;;15.50;96.00;;;;;;5012260;28;20422;-68
2021/06/27 03:41:35;;;;;;;;;;;15.50;96.10;;;;;;5013087;28;19925;-69
2021/06/27 03:44:01;;;;;;;;;;;15.50;96.10;;;;;;5015728;28;19951;-68
2021/06/27 03:46:27;;;;;;;;;;;15.50;96.10;;;;;;5015582;28;20007;-68
2021/06/27 03:48:52;;;;;;;;;;;15.50;95.90;;;;;;5015676;28;19948;-68
2021/06/27 03:56:57;;;;;;;;;;;15.60;95.80;;;;;;4681216;28;19989;-71
2021/06/27 03:59:22;;;;;;;;;;;15.50;95.70;;;;;;5000900;28;19971;-71
2021/06/27 04:01:48;;;;;;;;;;;15.50;95.80;;;;;;5014299;28;19989;-71
2021/06/27 04:04:13;;;;;;;;;;;15.50;95.80;;;;;;5015527;28;20428;-71
2021/06/27 04:06:39;;;;;;;;;;;15.50;95.90;;;;;;5015312;28;20399;-71
2021/06/27 04:09:04;;;;;;;;;;;15.50;95.90;;;;;;5014182;28;19926;-71
2021/06/27 04:11:30;;;;;;;;;;;15.50;95.90;;;;;;5009255;28;19929;-71
2021/06/27 04:13:55;;;;;;;;;;;15.50;95.90;;;;;;4994382;28;20031;-70
2021/06/27 04:16:21;;;;;;;;;;;15.50;95.90;;;;;;4995566;28;20377;-70
2021/06/27 04:18:46;;;;;;;;;;;15.50;95.90;;;;;;4995525;28;19934;-71
2021/06/27 04:21:12;;;;;;;;;;;15.60;95.80;;;;;;4995457;28;19924;-71
2021/06/27 04:23:38;;;;;;;;;;;15.60;95.70;;;;;;4995633;28;19924;-71
2021/06/27 04:26:03;;;;;;;;;;;15.60;95.80;;;;;;4994220;28;19922;-71
2021/06/27 04:28:29;;;;;;;;;;;15.50;95.70;;;;;;4995403;28;19926;-71
2021/06/27 04:30:55;;;;;;;;;;;15.50;95.80;;;;;;4994113;28;19959;-71
2021/06/27 04:33:20;;;;;;;;;;;15.40;95.90;;;;;;4994264;28;19925;-71
2021/06/27 04:35:46;;;;;;;;;;;15.50;95.80;;;;;;4995440;28;19951;-71
2021/06/27 04:38:13;;;;;;;;;;;15.50;95.70;;;;;;4995250;28;19978;-71
2021/06/27 04:40:38;;;;;;;;;;;15.50;95.70;;;;;;4993994;28;20005;-71
2021/06/27 04:43:04;;;;;;;;;;;15.50;95.80;;;;;;4995129;28;20355;-71
2021/06/27 04:45:30;;;;;;;;;;;15.50;95.70;;;;;;4995132;28;19961;-71
2021/06/27 04:47:55;;;;;;;;;;;15.50;95.70;;;;;;4998818;28;20375;-71
2021/06/27 04:50:21;;;;;;;;;;;15.60;95.60;;;;;;5014517;28;19973;-71
2021/06/27 04:52:51;;;;;;;;;;;15.60;95.90;;;;;;5014432;28;20020;-71
2021/06/27 04:55:17;;;;;;;;;;;15.50;95.80;;;;;;5014203;28;20414;-70
2021/06/27 04:57:42;;;;;;;;;;;15.50;95.90;;;;;;5014439;28;20007;-71
2021/06/27 05:00:08;;;;;;;;;;;15.50;95.90;;;;;;5014318;28;20344;-71
2021/06/27 05:02:33;;;;;;;;;;;15.60;95.80;;;;;;5014543;28;19961;-71
2021/06/27 05:04:59;;;;;;;;;;;15.70;95.70;;;;;;5014337;28;19937;-71
2021/06/27 05:07:25;;;;;;;;;;;15.60;95.70;;;;;;5012919;28;20390;-70
2021/06/27 05:09:50;;;;;;;;;;;15.60;95.90;;;;;;5014142;28;19926;-70
2021/06/27 05:12:16;;;;;;;;;;;15.50;95.90;;;;;;5012911;28;20238;-71
2021/06/27 05:14:41;;;;;;;;;;;15.60;95.80;;;;;;5014157;28;20069;-72
2021/06/27 05:17:07;;;;;;;;;;;15.70;95.80;;;;;;5012745;28;19973;-71
2021/06/27 05:19:32;;;;;;;;;;;15.70;95.60;;;;;;5014068;28;20016;-71
2021/06/27 05:21:58;;;;;;;;;;;15.80;95.70;;;;;;5013879;28;19924;-70
2021/06/27 05:24:23;;;;;;;;;;;15.80;95.50;;;;;;5012787;28;19927;-71
2021/06/27 05:26:49;;;;;;;;;;;15.90;95.40;;;;;;5013818;28;20227;-71
2021/06/27 05:29:14;;;;;;;;;;;16.00;95.40;;;;;;5012641;28;20018;-70
2021/06/27 05:31:40;;;;;;;;;;;16.00;95.30;;;;;;5013609;28;19981;-71
2021/06/27 05:34:05;;;;;;;;;;;16.00;95.30;;;;;;5013758;28;20333;-71
2021/06/27 05:36:37;;;;;;;;;;;16.00;95.20;;;;;;5012507;28;20432;-71
2021/06/27 05:39:09;;;;;;;;;;;16.00;95.30;;;;;;5012658;28;19928;-69
2021/06/27 05:41:35;;;;;;;;;;;16.00;95.30;;;;;;5013869;28;19923;-70
2021/06/27 05:44:00;;;;;;;;;;;16.00;95.30;;;;;;5013584;28;19930;-71
2021/06/27 05:46:26;;;;;;;;;;;16.00;95.30;;;;;;5014360;28;19920;-71
2021/06/27 05:48:51;;;;;;;;;;;16.00;95.40;;;;;;5002071;28;19930;-72
2021/06/27 05:51:18;;;;;;;;;;;16.10;95.50;;;;;;4994723;28;20266;-72
2021/06/27 05:53:43;;;;;;;;;;;16.20;95.20;;;;;;4993970;28;20438;-73
2021/06/27 05:56:14;;;;;;;;;;;16.20;95.20;;;;;;4992119;28;19980;-71
2021/06/27 05:58:40;;;;;;;;;;;16.40;94.90;;;;;;4994318;28;19938;-72
2021/06/27 06:01:06;;;;;;;;;;;16.50;94.80;;;;;;4991316;28;20006;-72
2021/06/27 06:03:32;;;;;;;;;;;16.60;94.70;;;;;;4992071;28;20390;-72
2021/06/27 06:05:58;;;;;;;;;;;16.80;94.50;;;;;;4994050;28;19933;-69
2021/06/27 06:08:23;;;;;;;;;;;16.80;94.20;;;;;;4994201;28;20389;-70
2021/06/27 06:10:49;;;;;;;;;;;16.90;94.30;;;;;;4992756;28;20410;-69
2021/06/27 06:13:14;;;;;;;;;;;17.10;94.10;;;;;;4993027;28;19932;-70
2021/06/27 06:15:40;;;;;;;;;;;17.20;94.00;;;;;;4992925;28;19947;-69
2021/06/27 06:18:05;;;;;;;;;;;17.30;93.00;;;;;;4993006;28;20407;-71
2021/06/27 06:20:31;;;;;;;;;;;17.30;93.60;;;;;;4993082;28;19971;-70
2021/06/27 06:22:56;;;;;;;;;;;17.50;93.50;;;;;;4993114;28;19963;-69
2021/06/27 06:25:22;;;;;;;;;;;17.60;93.40;;;;;;4993384;28;19925;-70
2021/06/27 06:27:47;;;;;;;;;;;17.60;93.30;;;;;;4993315;28;19920;-70
2021/06/27 06:30:13;;;;;;;;;;;17.60;93.50;;;;;;4993154;28;20437;-70
2021/06/27 06:32:39;;;;;;;;;;;17.70;93.30;;;;;;4992175;28;20306;-69
2021/06/27 06:35:04;;;;;;;;;;;17.70;93.40;;;;;;4993060;28;20331;-70
2021/06/27 06:37:30;;;;;;;;;;;17.70;93.30;;;;;;4993152;28;19937;-70
2021/06/27 06:39:55;;;;;;;;;;;17.80;93.30;;;;;;4993143;28;20013;-70
2021/06/27 06:42:21;;;;;;;;;;;17.80;93.20;;;;;;4993435;28;19934;-70
2021/06/27 06:44:46;;;;;;;;;;;18.00;93.00;;;;;;4992814;28;20433;-71
2021/06/27 06:47:12;;;;;;;;;;;18.20;92.40;;;;;;4993111;28;20019;-71
2021/06/27 06:49:37;;;;;;;;;;;18.30;92.50;;;;;;5011461;28;19924;-69
2021/06/27 06:52:03;;;;;;;;;;;18.40;92.20;;;;;;5012699;28;20413;-71
2021/06/27 06:54:28;;;;;;;;;;;18.50;92.20;;;;;;5012789;28;19961;-70
2021/06/27 06:56:54;;;;;;;;;;;18.40;92.30;;;;;;5012206;28;19956;-70
2021/06/27 06:59:19;;;;;;;;;;;18.30;92.40;;;;;;5012513;28;20005;-72
2021/06/27 07:01:45;;;;;;;;;;;18.20;92.50;;;;;;5012504;28;20051;-70
2021/06/27 07:04:10;;;;;;;;;;;18.20;92.10;;;;;;5012549;28;19978;-70
2021/06/27 07:06:36;;;;;;;;;;;18.10;92.40;;;;;;5012444;28;19929;-72
2021/06/27 07:09:02;;;;;;;;;;;18.10;92.10;;;;;;5012419;28;19921;-71
2021/06/27 07:11:27;;;;;;;;;;;18.10;91.90;;;;;;5012782;28;20396;-71
2021/06/27 07:13:53;;;;;;;;;;;18.00;92.40;;;;;;5012657;28;19948;-72
2021/06/27 07:16:18;;;;;;;;;;;17.90;91.90;;;;;;5013088;28;20377;-68
2021/06/27 07:18:44;;;;;;;;;;;17.80;92.70;;;;;;5016116;28;19947;-70
2021/06/27 07:21:09;;;;;;;;;;;17.70;93.10;;;;;;5016225;28;19932;-72
2021/06/27 07:23:35;;;;;;;;;;;17.70;93.10;;;;;;5014869;28;19927;-70
2021/06/27 07:26:00;;;;;;;;;;;17.80;93.40;;;;;;5016064;28;20002;-70
2021/06/27 07:28:26;;;;;;;;;;;17.90;93.20;;;;;;5015962;28;19927;-70
2021/06/27 07:30:51;;;;;;;;;;;18.00;93.10;;;;;;5016490;28;20279;-70
2021/06/27 07:33:17;;;;;;;;;;;17.90;93.10;;;;;;5016080;28;19925;-70
2021/06/27 07:35:43;;;;;;;;;;;18.00;93.00;;;;;;5015779;28;19950;-70
2021/06/27 07:38:08;;;;;;;;;;;17.90;92.40;;;;;;5015898;28;19922;-71
2021/06/27 07:40:34;;;;;;;;;;;17.80;92.90;;;;;;5015790;28;19971;-71
2021/06/27 07:42:59;;;;;;;;;;;17.80;93.30;;;;;;5015737;28;20032;-72
2021/06/27 07:45:25;;;;;;;;;;;17.80;93.10;;;;;;5015768;28;19924;-70
2021/06/27 07:47:50;;;;;;;;;;;17.80;93.00;;;;;;5011151;28;20276;-71
2021/06/27 07:50:16;;;;;;;;;;;17.80;92.90;;;;;;4996016;28;19931;-70
2021/06/27 07:52:41;;;;;;;;;;;17.90;92.70;;;;;;4996020;28;19929;-70
2021/06/27 07:55:07;;;;;;;;;;;18.00;92.80;;;;;;4995775;28;19944;-70
2021/06/27 07:57:33;;;;;;;;;;;18.10;92.60;;;;;;4995768;28;20437;-70
2021/06/27 07:59:58;;;;;;;;;;;18.10;92.60;;;;;;4995849;28;19923;-70
2021/06/27 08:02:24;;;;;;;;;;;18.10;92.60;;;;;;4996129;28;19921;-70
2021/06/27 08:04:49;;;;;;;;;;;18.00;92.30;;;;;;4995845;28;19936;-71
2021/06/27 08:07:15;;;;;;;;;;;17.80;92.10;;;;;;4994354;28;20304;-71
2021/06/27 08:09:40;;;;;;;;;;;17.80;92.50;;;;;;4995633;28;20001;-70
2021/06/27 08:12:06;;;;;;;;;;;17.90;92.40;;;;;;4995689;28;19927;-70
2021/06/27 08:14:31;;;;;;;;;;;17.90;92.40;;;;;;4995438;28;20289;-70
2021/06/27 08:16:57;;;;;;;;;;;18.00;92.30;;;;;;4978050;28;20011;-70
2021/06/27 08:19:23;;;;;;;;;;;18.30;92.50;;;;;;4995374;28;19973;-70
2021/06/27 08:21:48;;;;;;;;;;;18.40;91.50;;;;;;4995574;28;19923;-71
2021/06/27 08:24:14;;;;;;;;;;;18.50;91.70;;;;;;4994185;28;19927;-70
2021/06/27 08:26:39;;;;;;;;;;;18.60;91.30;;;;;;4995254;28;19934;-70
2021/06/27 08:29:05;;;;;;;;;;;19.00;90.90;;;;;;4995116;28;20382;-70
2021/06/27 08:31:31;;;;;;;;;;;20.10;89.40;;;;;;4995139;28;19924;-70
2021/06/27 08:33:57;;;;;;;;;;;21.10;86.80;;;;;;4996288;28;19943;-70
2021/06/27 08:36:22;;;;;;;;;;;21.60;82.70;;;;;;4996447;28;19931;-70
2021/06/27 08:38:48;;;;;;;;;;;21.60;84.30;;;;;;4995372;28;19972;-69
2021/06/27 08:41:14;;;;;;;;;;;21.70;82.70;;;;;;4994463;28;20327;-69
2021/06/27 08:43:40;;;;;;;;;;;21.70;80.20;;;;;;4994179;28;19927;-70
2021/06/27 08:46:07;;;;;;;;;;;21.90;81.20;;;;;;4993321;28;19925;-70
2021/06/27 08:48:37;;;;;;;;;;;22.30;76.10;;;;;;5003151;28;19932;-70
2021/06/27 08:51:02;;;;;;;;;;;22.20;77.60;;;;;;5013855;28;19931;-69
2021/06/27 08:53:28;;;;;;;;;;;21.80;80.00;;;;;;5013926;28;19938;-70
2021/06/27 08:56:05;;;;;;;;;;;21.60;81.30;;;;;;5013606;28;20454;-71
2021/06/27 08:58:32;;;;;;;;;;;21.10;80.80;;;;;;5014390;28;19922;-70
2021/06/27 09:00:58;;;;;;;;;;;21.00;83.90;;;;;;5014279;28;19934;-70
2021/06/27 09:03:23;;;;;;;;;;;20.90;82.70;;;;;;5014460;28;19963;-70
2021/06/27 09:05:49;;;;;;;;;;;20.70;84.40;;;;;;5014193;28;19958;-70
2021/06/27 09:08:15;;;;;;;;;;;20.60;84.60;;;;;;5012832;28;19926;-69
2021/06/27 09:10:41;;;;;;;;;;;20.50;85.80;;;;;;5012870;28;19932;-71
2021/06/27 09:13:06;;;;;;;;;;;20.60;84.90;;;;;;5014150;28;20294;-70
2021/06/27 09:15:31;;;;;;;;;;;20.30;87.20;;;;;;5014047;28;20037;-71
2021/06/27 09:17:57;;;;;;;;;;;20.50;85.30;;;;;;5014185;28;19930;-71
2021/06/27 09:20:24;;;;;;;;;;;20.80;85.40;;;;;;5013823;28;19932;-69
2021/06/27 09:22:50;;;;;;;;;;;21.20;84.50;;;;;;5012816;28;20019;-70
2021/06/27 09:25:19;;;;;;;;;;;21.40;80.90;;;;;;5013910;28;19946;-71
2021/06/27 09:27:45;;;;;;;;;;;22.70;79.30;;;;;;5012587;28;20035;-71
2021/06/27 09:30:14;;;;;;;;;;;23.00;77.40;;;;;;5013641;28;20028;-72
2021/06/27 09:32:48;;;;;;;;;;;22.50;80.40;;;;;;5013484;28;20168;-71
2021/06/27 09:35:14;;;;;;;;;;;21.80;81.10;;;;;;4995702;28;20031;-71
2021/06/27 09:37:41;;;;;;;;;;;21.20;82.20;;;;;;5013741;28;20459;-71
2021/06/27 09:40:06;;;;;;;;;;;20.50;84.70;;;;;;5011596;28;19933;-70
2021/06/27 09:42:32;;;;;;;;;;;20.20;87.80;;;;;;5013598;28;19931;-71
2021/06/27 09:45:01;;;;;;;;;;;20.40;87.90;;;;;;5013148;28;19932;-71
2021/06/27 09:47:27;;;;;;;;;;;21.30;86.20;;;;;;5012473;28;20016;-71
2021/06/27 09:49:54;;;;;;;;;;;22.20;82.60;;;;;;4993686;28;20433;-70
2021/06/27 09:52:19;;;;;;;;;;;22.90;80.30;;;;;;4993759;28;19924;-71
2021/06/27 09:54:45;;;;;;;;;;;22.80;79.20;;;;;;4992426;28;19965;-71
2021/06/27 09:57:20;;;;;;;;;;;22.20;79.60;;;;;;4992189;28;19968;-71
2021/06/27 09:59:45;;;;;;;;;;;21.70;83.20;;;;;;4975926;28;19930;-70
2021/06/27 10:02:11;;;;;;;;;;;21.30;82.00;;;;;;4992500;28;20268;-70
2021/06/27 10:04:37;;;;;;;;;;;21.20;82.70;;;;;;4992369;28;19933;-71
2021/06/27 10:07:03;;;;;;;;;;;21.00;83.50;;;;;;4993521;28;19923;-70
2021/06/27 10:09:32;;;;;;;;;;;20.90;83.40;;;;;;4993479;28;19997;-71
2021/06/27 10:11:58;;;;;;;;;;;20.80;84.40;;;;;;4993477;28;20324;-71
2021/06/27 10:14:24;;;;;;;;;;;21.10;84.90;;;;;;4993437;28;19950;-71
2021/06/27 10:16:50;;;;;;;;;;;21.10;84.30;;;;;;4992163;28;20333;-71
2021/06/27 10:19:15;;;;;;;;;;;21.50;81.70;;;;;;4993261;28;19928;-71
2021/06/27 10:21:41;;;;;;;;;;;22.00;82.10;;;;;;4993283;28;19926;-70
2021/06/27 10:24:06;;;;;;;;;;;21.80;81.40;;;;;;4993324;28;19928;-71
2021/06/27 10:26:32;;;;;;;;;;;21.40;83.20;;;;;;4993243;28;20011;-70
2021/06/27 10:28:58;;;;;;;;;;;21.10;83.30;;;;;;4993382;28;19947;-71
2021/06/27 10:31:24;;;;;;;;;;;20.60;86.50;;;;;;4993054;28;19922;-70
2021/06/27 10:33:49;;;;;;;;;;;20.00;88.70;;;;;;4993088;28;19927;-70
2021/06/27 10:36:16;;;;;;;;;;;19.90;89.80;;;;;;4993468;28;20042;-71
2021/06/27 10:38:47;;;;;;;;;;;21.40;88.40;;;;;;4993319;28;20243;-71
2021/06/27 10:41:12;;;;;;;;;;;23.00;81.10;;;;;;4991891;28;19946;-71
2021/06/27 10:43:56;;;;;;;;;;;24.00;80.90;;;;;;4993059;28;20393;-71
2021/06/27 10:46:34;;;;;;;;;;;24.00;76.00;;;;;;4993098;28;19924;-71
2021/06/27 10:49:00;;;;;;;;;;;23.20;76.80;;;;;;5005606;28;19930;-71
2021/06/27 10:51:25;;;;;;;;;;;23.10;77.00;;;;;;5014056;28;19929;-71
2021/06/27 10:54:11;;;;;;;;;;;22.80;76.70;;;;;;5015230;28;19940;-71
2021/06/27 10:56:52;;;;;;;;;;;22.40;79.30;;;;;;5017145;28;20050;-70
2021/06/27 10:59:36;;;;;;;;;;;22.10;80.30;;;;;;5019841;28;19964;-71
2021/06/27 11:02:17;;;;;;;;;;;21.70;81.20;;;;;;5019564;28;19920;-70
2021/06/27 11:04:46;;;;;;;;;;;21.50;82.30;;;;;;5016459;28;19922;-71
2021/06/27 11:07:30;;;;;;;;;;;21.20;82.50;;;;;;5016473;28;19928;-72
2021/06/27 11:10:14;;;;;;;;;;;20.60;84.40;;;;;;5016402;28;19922;-71
2021/06/27 11:12:58;;;;;;;;;;;20.10;86.30;;;;;;5015078;28;19930;-70
2021/06/27 11:15:25;;;;;;;;;;;19.90;86.80;;;;;;5014892;28;20315;-71
2021/06/27 11:17:54;;;;;;;;;;;19.70;87.30;;;;;;5016314;28;19936;-70
2021/06/27 11:20:19;;;;;;;;;;;19.70;89.40;;;;;;5014703;28;19924;-70
2021/06/27 11:22:45;;;;;;;;;;;19.70;88.70;;;;;;5014950;28;19932;-71
2021/06/27 11:25:17;;;;;;;;;;;19.70;88.10;;;;;;5016105;28;19922;-70
2021/06/27 11:27:45;;;;;;;;;;;19.70;88.00;;;;;;5014903;28;19962;-71
2021/06/27 11:30:20;;;;;;;;;;;19.50;87.60;;;;;;5014808;28;19976;-69
2021/06/27 11:32:46;;;;;;;;;;;19.30;89.10;;;;;;5015856;28;20281;-71
2021/06/27 11:35:11;;;;;;;;;;;19.20;89.20;;;;;;5014775;28;19953;-70
2021/06/27 11:37:37;;;;;;;;;;;19.20;89.00;;;;;;5014829;28;19930;-71
2021/06/27 11:40:03;;;;;;;;;;;19.10;90.00;;;;;;5015932;28;20381;-70
2021/06/27 11:42:29;;;;;;;;;;;19.00;90.00;;;;;;5014879;28;19933;-70
2021/06/27 11:45:04;;;;;;;;;;;18.90;90.20;;;;;;5015650;28;19973;-71
2021/06/27 11:47:30;;;;;;;;;;;18.90;90.30;;;;;;5014240;28;19929;-69
2021/06/27 11:49:55;;;;;;;;;;;18.80;90.60;;;;;;4995402;28;19927;-71
2021/06/27 11:52:21;;;;;;;;;;;18.70;90.80;;;;;;4996404;28;19975;-70
2021/06/27 11:54:46;;;;;;;;;;;18.60;91.00;;;;;;4995989;28;19951;-70
2021/06/27 11:57:12;;;;;;;;;;;18.60;91.20;;;;;;4994481;28;19965;-71
2021/06/27 11:59:38;;;;;;;;;;;18.70;90.70;;;;;;4997021;28;20012;-71
2021/06/27 12:02:03;;;;;;;;;;;19.00;90.90;;;;;;4995259;28;20337;-71
2021/06/27 12:04:42;;;;;;;;;;;19.50;90.20;;;;;;4996537;28;19920;-71
2021/06/27 12:07:26;;;;;;;;;;;20.00;88.10;;;;;;4994902;28;19934;-70
2021/06/27 12:09:52;;;;;;;;;;;20.20;87.60;;;;;;4995830;28;19922;-70
2021/06/27 12:12:36;;;;;;;;;;;20.40;87.30;;;;;;4995719;28;19924;-71
2021/06/27 12:15:03;;;;;;;;;;;20.40;88.30;;;;;;4995734;28;19943;-71
2021/06/27 12:17:28;;;;;;;;;;;20.40;87.90;;;;;;4978633;28;20303;-71
2021/06/27 12:19:54;;;;;;;;;;;20.50;88.00;;;;;;4995326;28;19933;-71
2021/06/27 12:22:19;;;;;;;;;;;20.40;87.80;;;;;;4995644;28;19929;-70
2021/06/27 12:24:45;;;;;;;;;;;20.10;89.40;;;;;;4995611;28;20015;-70
2021/06/27 12:27:11;;;;;;;;;;;19.90;89.40;;;;;;4994423;28;20379;-70
2021/06/27 12:29:36;;;;;;;;;;;19.70;90.30;;;;;;4994318;28;19974;-70
2021/06/27 12:32:05;;;;;;;;;;;19.70;90.60;;;;;;4995112;28;19923;-70
2021/06/27 12:34:30;;;;;;;;;;;19.60;90.50;;;;;;4995289;28;20441;-69
2021/06/27 12:36:56;;;;;;;;;;;19.60;90.10;;;;;;4995142;28;19972;-70
2021/06/27 12:39:23;;;;;;;;;;;19.30;90.40;;;;;;4994112;28;19923;-70
2021/06/27 12:41:48;;;;;;;;;;;19.20;90.50;;;;;;4994017;28;19922;-70
2021/06/27 12:44:15;;;;;;;;;;;19.20;90.60;;;;;;4993863;28;19933;-70
2021/06/27 12:46:44;;;;;;;;;;;19.30;90.50;;;;;;4993635;28;19934;-70
2021/06/27 12:49:09;;;;;;;;;;;19.50;90.50;;;;;;5009776;28;19928;-70
2021/06/27 12:51:36;;;;;;;;;;;20.00;89.40;;;;;;5014656;28;19971;-70
2021/06/27 12:54:09;;;;;;;;;;;20.40;88.50;;;;;;5014446;28;19939;-70
2021/06/27 12:56:41;;;;;;;;;;;20.70;86.10;;;;;;5012779;28;20042;-68
2021/06/27 12:59:07;;;;;;;;;;;20.80;87.20;;;;;;5013289;28;20379;-70
2021/06/27 13:01:51;;;;;;;;;;;20.80;87.30;;;;;;5013175;28;19930;-70
2021/06/27 13:04:37;;;;;;;;;;;20.80;86.90;;;;;;5014544;28;19923;-71
2021/06/27 13:07:14;;;;;;;;;;;20.80;86.90;;;;;;5013761;28;19928;-69
2021/06/27 13:10:00;;;;;;;;;;;20.80;86.20;;;;;;5014134;28;19931;-71
2021/06/27 13:12:25;;;;;;;;;;;20.80;87.00;;;;;;5014196;28;19925;-70
2021/06/27 13:15:11;;;;;;;;;;;20.70;88.10;;;;;;5013054;28;20314;-71
2021/06/27 13:17:43;;;;;;;;;;;20.40;86.80;;;;;;5013847;28;20011;-71
2021/06/27 13:20:13;;;;;;;;;;;20.20;88.40;;;;;;5013822;28;19923;-71
2021/06/27 13:22:57;;;;;;;;;;;20.30;89.20;;;;;;5013989;28;19931;-71
2021/06/27 13:25:29;;;;;;;;;;;20.20;89.70;;;;;;5013945;28;19924;-70
2021/06/27 13:27:54;;;;;;;;;;;20.20;88.20;;;;;;5013837;28;19922;-69
2021/06/27 13:30:20;;;;;;;;;;;20.20;86.60;;;;;;5013847;28;19932;-71
2021/06/27 13:32:45;;;;;;;;;;;20.20;85.60;;;;;;5013423;28;19958;-70
2021/06/27 13:35:30;;;;;;;;;;;20.30;87.10;;;;;;5013664;28;19948;-71
2021/06/27 13:37:55;;;;;;;;;;;20.50;84.80;;;;;;5013667;28;20392;-70
2021/06/27 13:40:21;;;;;;;;;;;20.60;84.90;;;;;;5012385;28;19972;-71
2021/06/27 13:42:46;;;;;;;;;;;20.70;85.60;;;;;;5013584;28;19923;-70
2021/06/27 13:45:12;;;;;;;;;;;20.60;84.40;;;;;;5012460;28;20009;-71
2021/06/27 13:47:38;;;;;;;;;;;20.40;85.40;;;;;;5010866;28;20344;-70
2021/06/27 13:50:04;;;;;;;;;;;20.30;84.60;;;;;;4993849;28;20370;-70
2021/06/27 13:52:29;;;;;;;;;;;20.30;85.90;;;;;;4994095;28;19929;-70
2021/06/27 13:54:55;;;;;;;;;;;20.40;85.20;;;;;;4993686;28;19952;-70
2021/06/27 13:57:20;;;;;;;;;;;20.40;83.70;;;;;;4993204;28;19968;-70
2021/06/27 13:59:45;;;;;;;;;;;20.50;81.70;;;;;;4993772;28;20293;-70
2021/06/27 14:02:11;;;;;;;;;;;20.50;83.60;;;;;;4992586;28;19926;-70
2021/06/27 14:04:36;;;;;;;;;;;20.60;80.90;;;;;;4993787;28;19925;-71
2021/06/27 14:07:02;;;;;;;;;;;20.60;80.20;;;;;;4993462;28;19922;-71
2021/06/27 14:09:28;;;;;;;;;;;20.80;81.80;;;;;;4992408;28;19941;-70
2021/06/27 14:11:53;;;;;;;;;;;20.90;80.70;;;;;;4993365;28;20312;-70
2021/06/27 14:14:18;;;;;;;;;;;20.90;77.90;;;;;;4994074;28;20354;-69
2021/06/27 14:16:46;;;;;;;;;;;20.90;75.60;;;;;;4993840;28;19935;-69
2021/06/27 14:19:12;;;;;;;;;;;20.90;74.70;;;;;;4993335;28;19925;-71